Airfield :
LOGIN :

Register | Disclaimer

   EN    FR    IT 

 










Legend :    VFR   Marginal VFR   IFR   Intensive IFR   Very Intensive IFR
Visi :
Ceiling :
>= 8 km
>= 3000ft
5 to 8 km
1000 to 3000 ft
1500m to 5 km
500 to 1000 ft
800 to 1500m
200 to 500 ft
< 800m
< 200 ft
Symbols :   Thunderstorms  Fog  Heavy snow  Heavy precipitations  Wind > 20 kt
SIGMETs :     Misc.  Thunderstorms  Icing  Turbulence  Mountain Waves  Volcanic Ashes






- Airport Elevation : 151 ft
- IATA code : PES


ULPB - Petrozavodsk

CURRENT METAR :
  • 090600Z AUTO 23006MPS 9999 -SHRA ///048/// 06/01 Q0999 RMK QFE745/0993

EXPIRED METARs :
  • 090500Z AUTO 23007MPS 9999 -SHRA 05/00 Q0999 RMK QFE745/0994
  • 090400Z AUTO 22007MPS 9999 -SHRA ///076/// 05/M00 Q1000 RMK QFE746/0994

TAF TAF ULPB
Valid from the 09 at 06:00 until the 09 at 15:00 UTC


090457Z 0906/0915 25007G12MPS 6000 BKN015
TEMPO 0906/0912 27008G15MPS 3100 -SHRASN BKN010 BKN016CB
TEMPO 0912/0915 30006MPS 4000 -SHRA BKN017CB



MET'MAP, your aeronautical weather chart ! - Copyright ORBIFLY December 2007 - Disclaimer

ORBIFLY MET'MAP TEAM :

Programming & Development : Alexandra Zaïnal
Concept & original design : Baudouin d'Aumeries
Assistance for programming : Marc-Olivier Méhu
Technical & hardware support : Manuel Goepfert

Contact : metmap@orbifly.com




SOURCES & CREDITS :

   NOAA